Flight Track Log - Related Links

Times and Time Zones

All times are in EDT time to prevent confusion due to time zone crossing. See the SWA896 flight status page for this flight to view local times or setup timezone preferences in your user account.


Time Position Orientation Groundspeed Altitude Reporting Facility
EDT Latitude Longitude Course Direction KTS MPH feet Rate Location/Type
Sun 02:19:03 PM 36.1028 -115.1514 356° North 159 183 3,100  Level Los Angeles Center
Sun 02:19:22 PM 36.1158 -115.1525 356° North 161 185 3,600 1,674 Climbing Los Angeles Center
Sun 02:20:29 PM 36.1169 -115.2267 271° West 245 282 5,500 2,220 Climbing Los Angeles Center
Sun 02:21:29 PM 36.0839 -115.3039 242° Southwest 267 307 8,300 1,736 Climbing Los Angeles Center
Sun 02:22:30 PM 36.0114 -115.3383 201° Southwest 286 329 9,000 945 Climbing Los Angeles Center
Sun 02:23:55 PM 35.9328 -115.3789 203° Southwest 282 325 10,600 2,473 Climbing Los Angeles Center
Sun 02:24:58 PM 35.8861 -115.4911 243° Southwest 283 326 15,100 3,264 Climbing Los Angeles Center
Sun 02:26:00 PM 35.8897 -115.5844 273° West 280 322 17,400 2,323 Climbing Los Angeles Center
Sun 02:27:02 PM 35.8903 -115.7022 270° West 318 366 19,900 1,500 Climbing Los Angeles Center
Sun 02:28:04 PM 35.8933 -115.8239 272° West 359 413 20,500 1,210 Climbing Los Angeles Center
Sun 02:29:06 PM 35.9561 -115.9317 306° West 391 450 22,400 2,419 Climbing Los Angeles Center
Sun 02:30:08 PM 36.0222 -116.0244 311° West 388 447 25,500 3,242 Climbing Los Angeles Center
Sun 02:31:10 PM 36.1011 -116.1256 314° West 344 396 29,100 1,984 Climbing Los Angeles Center
Sun 02:32:12 PM 36.1678 -116.2133 313° West 344 396 29,600 532 Climbing Los Angeles Center
Sun 02:33:14 PM 36.2417 -116.3119 313° West 375 432 30,200 677 Climbing Los Angeles Center
Sun 02:34:16 PM 36.3183 -116.4136 313° West 396 456 31,000 677 Climbing Los Angeles Center
Sun 02:35:18 PM 36.3933 -116.5144 313° West 398 458 31,600 968 Climbing Los Angeles Center
Sun 02:36:20 PM 36.4697 -116.6164 313° West 402 463 33,000 1,152 Climbing Los Angeles Center
Sun 02:37:23 PM 36.5433 -116.7189 312° West 397 457 34,000 480 Climbing Los Angeles Center
Sun 02:38:25 PM 36.6511 -116.8164 324° Northwest 402 463 34,000  Level Los Angeles Center
Sun 02:39:27 PM 36.7450 -116.8836 330° Northwest 401 461 34,000  Level Los Angeles Center
Sun 02:40:29 PM 36.8431 -116.9597 328° Northwest 402 463 34,000  Level Los Angeles Center
Sun 02:41:06 PM 36.8989 -117.0033 328° Northwest 400 460 34,000  Level Oakland Center
Sun 02:42:08 PM 36.9931 -117.0761 328° Northwest 398 458 34,000  Level Oakland Center
Sun 02:43:10 PM 37.0867 -117.1467 329° Northwest 396 456 34,000  Level Oakland Center
Sun 02:44:12 PM 37.1811 -117.2206 328° Northwest 397 457 34,000  Level Oakland Center
Sun 02:45:13 PM 37.2919 -117.3072 328° Northwest 392 451 34,000  Level Oakland Center
Sun 02:46:15 PM 37.3722 -117.3953 319° Northwest 389 448 34,000  Level Oakland Center
Sun 02:47:17 PM 37.4406 -117.5019 309° West 393 452 34,000  Level Oakland Center
Sun 02:48:19 PM 37.5086 -117.6050 310° West 384 442 34,000  Level Oakland Center
Sun 02:49:20 PM 37.5786 -117.7103 310° West 388 447 34,000 -98 Level Oakland Center
Sun 02:50:22 PM 37.6461 -117.8150 309° West 384 442 33,800 -581 Descending Oakland Center
Sun 02:51:24 PM 37.7147 -117.9200 310° West 385 443 32,800 -968 Descending Oakland Center
Sun 02:52:26 PM 37.7836 -118.0269 309° West 390 449 31,800 -976 Descending Oakland Center
Sun 02:53:27 PM 37.8519 -118.1331 309° West 388 447 30,800 -878 Descending Oakland Center
Sun 02:54:29 PM 37.9347 -118.2617 309° West 389 448 30,000 -387 Descending Oakland Center
Sun 02:55:31 PM 38.0036 -118.3689 309° West 391 450 30,000  Level Oakland Center
Sun 02:56:33 PM 38.0714 -118.4767 309° West 390 449 30,000  Level Oakland Center
Sun 02:57:34 PM 38.1342 -118.5753 309° West 392 451 30,000  Level Oakland Center
Sun 02:58:36 PM 38.2019 -118.6831 309° West 392 451 30,000  Level Oakland Center
Sun 02:59:38 PM 38.2844 -118.8125 309° West 390 449 30,000  Level Oakland Center
Sun 03:00:40 PM 38.3525 -118.9194 309° West 389 448 30,000  Level Oakland Center
Sun 03:01:41 PM 38.4192 -119.0281 308° West 389 448 30,000  Level Oakland Center
Sun 03:02:43 PM 38.4867 -119.1369 308° West 390 449 30,000  Level Oakland Center
Sun 03:03:45 PM 38.5544 -119.2453 309° West 389 448 30,000  Level Oakland Center
Sun 03:04:46 PM 38.6208 -119.3536 308° West 387 445 30,000 -49 Level Oakland Center
Sun 03:05:48 PM 38.6611 -119.4825 292° West 395 455 29,900 -537 Descending Oakland Center
Sun 03:06:49 PM 38.6936 -119.6194 287° West 402 463 28,900 -1,073 Descending Oakland Center
Sun 03:07:51 PM 38.7303 -119.7861 286° West 405 466 27,700 -1,065 Descending Oakland Center
Sun 03:08:53 PM 38.7594 -119.9194 286° West 404 465 26,700 -976 Descending Oakland Center
Sun 03:09:54 PM 38.7900 -120.0561 286° West 402 463 25,700 -976 Descending Oakland Center
Sun 03:10:56 PM 38.8206 -120.1939 286° West 402 463 24,700 -1,463 Descending Oakland Center
Sun 03:11:57 PM 38.8497 -120.3286 286° West 395 455 22,700 -2,146 Descending Oakland Center
Sun 03:12:59 PM 38.8772 -120.4564 285° West 377 434 20,300 -2,468 Descending Oakland Center
Sun 03:14:01 PM 38.9083 -120.6036 285° West 360 414 17,600 -2,439 Descending Oakland Center
Sun 03:15:02 PM 38.9339 -120.7219 286° West 348 400 15,300 -2,244 Descending Oakland Center
Sun 03:16:04 PM 38.9589 -120.8381 286° West 341 392 13,000 -1,902 Descending Oakland Center
Sun 03:17:05 PM 38.9672 -120.9594 275° West 355 409 11,400 -1,268 Descending Oakland Center
Sun 03:18:07 PM 38.9450 -121.0853 257° West 363 418 10,400 -732 Descending Oakland Center
Sun 03:19:08 PM 38.9247 -121.1986 257° West 331 381 9,900 -878 Descending Oakland Center
Sun 03:20:10 PM 38.9058 -121.2964 256° West 292 336 8,600 -1,452 Descending Oakland Center
Sun 03:21:12 PM 38.8850 -121.4153 257° West 287 330 6,900 -1,463 Descending Oakland Center
Sun 03:22:13 PM 38.8706 -121.5128 259° West 282 325 5,600 -976 Descending Oakland Center
Sun 03:23:15 PM 38.8553 -121.6089 258° West 278 320 4,900 -968 Descending Oakland Center
Sun 03:24:17 PM 38.8211 -121.6883 241° Southwest 285 328 3,600 -976 Descending Oakland Center
Sun 03:25:18 PM 38.7456 -121.6911 182° South 275 316 2,900 -341 Descending Oakland Center
Sun 03:26:20 PM 38.6783 -121.6808 173° South 252 290 2,900 -390 Level Oakland Center
Sun 03:27:21 PM 38.6289 -121.6564 159° South 219 252 2,100 -1,059 Descending Oakland Center
Sun 03:28:19 PM 38.6500 -121.6000 64° Northeast 154 177 800 -1,017 Descending Northern Cal TRACON
Sun 03:29:19 PM 38.6833 -121.6000 360° North 142 163 100 -700 Descending Northern Cal TRACON

Login

Don't have an account? Register now (free) for customized features, flight alerts, and more!